sensor_id;sensor_type;location;lat;lon;timestamp;pressure;altitude;pressure_sealevel;temperature;humidity
6423;BME280;3244;42.708;23.288;2023-05-27T00:00:31;95123.22;;;16.12;88.77
6423;BME280;3244;42.708;23.288;2023-05-27T00:02:58;95128.22;;;15.99;90.32
6423;BME280;3244;42.708;23.288;2023-05-27T00:05:25;95118.00;;;15.67;91.59
6423;BME280;3244;42.708;23.288;2023-05-27T00:07:55;95122.09;;;15.53;92.99
6423;BME280;3244;42.708;23.288;2023-05-27T00:10:21;95128.44;;;15.46;93.30
6423;BME280;3244;42.708;23.288;2023-05-27T00:12:48;95124.94;;;15.31;94.55
6423;BME280;3244;42.708;23.288;2023-05-27T00:15:15;95124.25;;;15.28;95.11
6423;BME280;3244;42.708;23.288;2023-05-27T00:17:42;95118.97;;;15.31;94.94
6423;BME280;3244;42.708;23.288;2023-05-27T00:20:10;95110.84;;;15.23;95.10
6423;BME280;3244;42.708;23.288;2023-05-27T00:22:38;95112.06;;;15.16;95.25
6423;BME280;3244;42.708;23.288;2023-05-27T00:25:07;95108.38;;;15.21;95.07
6423;BME280;3244;42.708;23.288;2023-05-27T00:27:34;95113.41;;;15.23;93.29
6423;BME280;3244;42.708;23.288;2023-05-27T00:30:00;95113.88;;;15.31;92.83
6423;BME280;3244;42.708;23.288;2023-05-27T00:32:28;95114.28;;;15.39;92.42
6423;BME280;3244;42.708;23.288;2023-05-27T00:34:54;95118.66;;;15.37;92.41
6423;BME280;3244;42.708;23.288;2023-05-27T00:37:21;95115.19;;;15.38;91.75
6423;BME280;3244;42.708;23.288;2023-05-27T00:39:48;95111.72;;;15.39;91.40
6423;BME280;3244;42.708;23.288;2023-05-27T00:42:16;95111.88;;;15.36;92.60
6423;BME280;3244;42.708;23.288;2023-05-27T00:44:43;95108.78;;;15.47;92.70
6423;BME280;3244;42.708;23.288;2023-05-27T00:47:09;95105.84;;;15.70;91.95
6423;BME280;3244;42.708;23.288;2023-05-27T00:49:36;95096.28;;;15.74;92.32
6423;BME280;3244;42.708;23.288;2023-05-27T00:52:04;95089.50;;;15.73;92.11
6423;BME280;3244;42.708;23.288;2023-05-27T00:54:31;95090.50;;;15.70;91.83
6423;BME280;3244;42.708;23.288;2023-05-27T00:56:58;95082.41;;;15.78;92.22
6423;BME280;3244;42.708;23.288;2023-05-27T00:59:26;95087.19;;;15.84;92.10
6423;BME280;3244;42.708;23.288;2023-05-27T01:01:53;95087.69;;;15.90;92.16
6423;BME280;3244;42.708;23.288;2023-05-27T01:04:20;95082.22;;;15.96;92.44
6423;BME280;3244;42.708;23.288;2023-05-27T01:06:55;95069.66;;;16.08;92.13
6423;BME280;3244;42.708;23.288;2023-05-27T01:09:28;95072.03;;;16.11;91.91
6423;BME280;3244;42.708;23.288;2023-05-27T01:12:03;95068.41;;;16.15;91.94
6423;BME280;3244;42.708;23.288;2023-05-27T01:14:35;95063.34;;;16.13;92.18
6423;BME280;3244;42.708;23.288;2023-05-27T01:17:05;95053.09;;;16.13;92.27
6423;BME280;3244;42.708;23.288;2023-05-27T01:19:34;95046.81;;;16.19;91.92
6423;BME280;3244;42.708;23.288;2023-05-27T01:22:02;95044.25;;;16.19;92.06
6423;BME280;3244;42.708;23.288;2023-05-27T01:24:31;95034.16;;;16.16;92.32
6423;BME280;3244;42.708;23.288;2023-05-27T01:26:58;95032.50;;;16.15;92.37
6423;BME280;3244;42.708;23.288;2023-05-27T01:29:26;95027.78;;;16.23;91.76
6423;BME280;3244;42.708;23.288;2023-05-27T01:31:57;95022.75;;;16.21;91.89
6423;BME280;3244;42.708;23.288;2023-05-27T01:34:33;95020.00;;;16.24;92.08
6423;BME280;3244;42.708;23.288;2023-05-27T01:37:05;95016.03;;;16.19;92.20
6423;BME280;3244;42.708;23.288;2023-05-27T01:39:34;95022.16;;;16.16;92.29
6423;BME280;3244;42.708;23.288;2023-05-27T01:42:03;95020.69;;;16.12;92.39
6423;BME280;3244;42.708;23.288;2023-05-27T01:44:31;95013.44;;;16.05;92.16
6423;BME280;3244;42.708;23.288;2023-05-27T01:46:59;95022.22;;;16.01;92.61
6423;BME280;3244;42.708;23.288;2023-05-27T01:49:26;95015.00;;;16.07;92.11
6423;BME280;3244;42.708;23.288;2023-05-27T01:51:53;95029.06;;;16.00;92.11
6423;BME280;3244;42.708;23.288;2023-05-27T01:54:19;95028.50;;;15.95;92.59
6423;BME280;3244;42.708;23.288;2023-05-27T01:56:48;95032.53;;;15.99;92.42
6423;BME280;3244;42.708;23.288;2023-05-27T01:59:14;95037.09;;;15.94;92.75
6423;BME280;3244;42.708;23.288;2023-05-27T02:01:41;95031.53;;;15.86;93.02
6423;BME280;3244;42.708;23.288;2023-05-27T02:04:08;95025.69;;;15.84;93.00
6423;BME280;3244;42.708;23.288;2023-05-27T02:06:35;95031.31;;;15.75;93.44
6423;BME280;3244;42.708;23.288;2023-05-27T02:09:02;95023.22;;;15.67;93.68
6423;BME280;3244;42.708;23.288;2023-05-27T02:11:29;95030.16;;;15.64;93.43
6423;BME280;3244;42.708;23.288;2023-05-27T02:13:58;95028.84;;;15.57;93.92
6423;BME280;3244;42.708;23.288;2023-05-27T02:16:26;95031.63;;;15.53;94.48
6423;BME280;3244;42.708;23.288;2023-05-27T02:18:53;95031.34;;;15.59;94.24
6423;BME280;3244;42.708;23.288;2023-05-27T02:21:20;95029.56;;;15.59;94.25
6423;BME280;3244;42.708;23.288;2023-05-27T02:23:47;95031.97;;;15.62;94.15
6423;BME280;3244;42.708;23.288;2023-05-27T02:26:13;95035.19;;;15.66;94.21
6423;BME280;3244;42.708;23.288;2023-05-27T02:28:40;95031.88;;;15.64;94.20
6423;BME280;3244;42.708;23.288;2023-05-27T02:31:08;95031.66;;;15.69;94.05
6423;BME280;3244;42.708;23.288;2023-05-27T02:33:35;95032.97;;;15.76;93.51
6423;BME280;3244;42.708;23.288;2023-05-27T02:36:01;95039.22;;;15.86;93.09
6423;BME280;3244;42.708;23.288;2023-05-27T02:38:28;95037.41;;;15.88;92.82
6423;BME280;3244;42.708;23.288;2023-05-27T02:40:55;95038.31;;;15.87;92.57
6423;BME280;3244;42.708;23.288;2023-05-27T02:43:21;95030.31;;;15.93;92.37
6423;BME280;3244;42.708;23.288;2023-05-27T02:45:48;95030.16;;;15.96;92.18
6423;BME280;3244;42.708;23.288;2023-05-27T02:48:16;95029.41;;;15.94;91.94
6423;BME280;3244;42.708;23.288;2023-05-27T02:50:43;95032.53;;;15.99;91.95
6423;BME280;3244;42.708;23.288;2023-05-27T02:53:10;95039.56;;;15.95;92.00
6423;BME280;3244;42.708;23.288;2023-05-27T02:55:37;95035.75;;;15.87;92.37
6423;BME280;3244;42.708;23.288;2023-05-27T02:58:03;95028.97;;;15.86;92.34
6423;BME280;3244;42.708;23.288;2023-05-27T03:00:31;95025.69;;;15.84;92.42
6423;BME280;3244;42.708;23.288;2023-05-27T03:02:57;95037.56;;;15.85;92.53
6423;BME280;3244;42.708;23.288;2023-05-27T03:05:25;95034.78;;;15.89;92.01
6423;BME280;3244;42.708;23.288;2023-05-27T03:07:52;95032.13;;;15.91;91.92
6423;BME280;3244;42.708;23.288;2023-05-27T03:10:19;95025.84;;;15.96;91.64
6423;BME280;3244;42.708;23.288;2023-05-27T03:12:46;95033.38;;;15.99;91.30
6423;BME280;3244;42.708;23.288;2023-05-27T03:15:12;95023.03;;;16.01;91.35
6423;BME280;3244;42.708;23.288;2023-05-27T03:17:40;95018.47;;;16.06;90.64
6423;BME280;3244;42.708;23.288;2023-05-27T03:20:07;95033.13;;;16.04;90.24
6423;BME280;3244;42.708;23.288;2023-05-27T03:22:35;95034.94;;;16.02;91.08
6423;BME280;3244;42.708;23.288;2023-05-27T03:25:02;95034.41;;;16.11;91.25
6423;BME280;3244;42.708;23.288;2023-05-27T03:27:29;95030.19;;;16.56;90.55
6423;BME280;3244;42.708;23.288;2023-05-27T03:29:56;95027.91;;;17.24;88.19
6423;BME280;3244;42.708;23.288;2023-05-27T03:32:23;95032.50;;;17.88;84.65
6423;BME280;3244;42.708;23.288;2023-05-27T03:34:50;95030.28;;;17.96;81.34
6423;BME280;3244;42.708;23.288;2023-05-27T03:37:17;95027.88;;;17.52;82.42
6423;BME280;3244;42.708;23.288;2023-05-27T03:39:45;95038.81;;;17.27;83.47
6423;BME280;3244;42.708;23.288;2023-05-27T03:42:11;95039.38;;;17.04;84.01
6423;BME280;3244;42.708;23.288;2023-05-27T03:44:38;95046.56;;;16.83;84.80
6423;BME280;3244;42.708;23.288;2023-05-27T03:47:05;95050.19;;;16.65;85.60
6423;BME280;3244;42.708;23.288;2023-05-27T03:49:32;95052.53;;;16.54;86.24
6423;BME280;3244;42.708;23.288;2023-05-27T03:51:59;95056.34;;;16.47;86.97
6423;BME280;3244;42.708;23.288;2023-05-27T03:54:25;95049.97;;;16.54;86.82
6423;BME280;3244;42.708;23.288;2023-05-27T03:56:53;95064.50;;;16.69;86.30
6423;BME280;3244;42.708;23.288;2023-05-27T03:59:20;95038.56;;;16.44;86.90
6423;BME280;3244;42.708;23.288;2023-05-27T04:01:47;95052.06;;;16.47;87.32
6423;BME280;3244;42.708;23.288;2023-05-27T04:04:14;95047.00;;;16.46;87.71
6423;BME280;3244;42.708;23.288;2023-05-27T04:06:40;95042.09;;;16.57;87.75
6423;BME280;3244;42.708;23.288;2023-05-27T04:09:08;95048.31;;;16.53;88.06
6423;BME280;3244;42.708;23.288;2023-05-27T04:11:35;95027.88;;;16.51;87.80
6423;BME280;3244;42.708;23.288;2023-05-27T04:14:03;95049.84;;;16.71;86.97
6423;BME280;3244;42.708;23.288;2023-05-27T04:16:32;95039.25;;;16.77;86.02
6423;BME280;3244;42.708;23.288;2023-05-27T04:19:00;95045.06;;;16.65;86.47
6423;BME280;3244;42.708;23.288;2023-05-27T04:21:27;95040.50;;;16.70;86.51
6423;BME280;3244;42.708;23.288;2023-05-27T04:23:53;95044.19;;;16.80;86.03
6423;BME280;3244;42.708;23.288;2023-05-27T04:26:20;95048.06;;;17.02;85.36
6423;BME280;3244;42.708;23.288;2023-05-27T04:28:48;95047.78;;;17.34;84.22
6423;BME280;3244;42.708;23.288;2023-05-27T04:31:16;95050.69;;;18.26;80.64
6423;BME280;3244;42.708;23.288;2023-05-27T04:33:43;95043.59;;;18.82;77.51
6423;BME280;3244;42.708;23.288;2023-05-27T04:36:09;95053.22;;;19.18;74.34
6423;BME280;3244;42.708;23.288;2023-05-27T04:38:36;95060.72;;;19.34;73.98
6423;BME280;3244;42.708;23.288;2023-05-27T04:41:03;95057.22;;;19.60;73.11
6423;BME280;3244;42.708;23.288;2023-05-27T04:43:30;95061.41;;;20.11;70.96
6423;BME280;3244;42.708;23.288;2023-05-27T04:45:58;95061.66;;;20.55;68.47
6423;BME280;3244;42.708;23.288;2023-05-27T04:48:27;95063.28;;;20.45;68.74
6423;BME280;3244;42.708;23.288;2023-05-27T04:50:54;95061.59;;;20.20;69.62
6423;BME280;3244;42.708;23.288;2023-05-27T04:53:22;95054.56;;;19.98;70.19
6423;BME280;3244;42.708;23.288;2023-05-27T04:55:49;95056.75;;;19.92;70.56
6423;BME280;3244;42.708;23.288;2023-05-27T04:58:16;95058.19;;;19.96;70.21
6423;BME280;3244;42.708;23.288;2023-05-27T05:00:43;95061.47;;;19.98;70.39
6423;BME280;3244;42.708;23.288;2023-05-27T05:03:18;95058.31;;;20.18;69.95
6423;BME280;3244;42.708;23.288;2023-05-27T05:05:49;95061.41;;;20.47;68.66
6423;BME280;3244;42.708;23.288;2023-05-27T05:08:16;95056.66;;;20.65;67.94
6423;BME280;3244;42.708;23.288;2023-05-27T05:10:43;95052.25;;;20.78;67.44
6423;BME280;3244;42.708;23.288;2023-05-27T05:13:10;95054.19;;;20.98;67.16
6423;BME280;3244;42.708;23.288;2023-05-27T05:15:37;95056.78;;;21.10;67.00
6423;BME280;3244;42.708;23.288;2023-05-27T05:18:04;95059.25;;;21.11;67.13
6423;BME280;3244;42.708;23.288;2023-05-27T05:20:30;95060.28;;;21.09;66.43
6423;BME280;3244;42.708;23.288;2023-05-27T05:22:58;95057.66;;;20.86;67.11
6423;BME280;3244;42.708;23.288;2023-05-27T05:25:25;95065.25;;;20.42;68.51
6423;BME280;3244;42.708;23.288;2023-05-27T05:27:52;95063.47;;;20.18;69.37
6423;BME280;3244;42.708;23.288;2023-05-27T05:30:18;95070.34;;;19.94;70.61
6423;BME280;3244;42.708;23.288;2023-05-27T05:32:45;95065.22;;;19.81;71.32
6423;BME280;3244;42.708;23.288;2023-05-27T05:35:12;95074.13;;;19.77;71.96
6423;BME280;3244;42.708;23.288;2023-05-27T05:37:38;95078.25;;;19.67;72.65
6423;BME280;3244;42.708;23.288;2023-05-27T05:40:09;95070.28;;;19.83;72.65
6423;BME280;3244;42.708;23.288;2023-05-27T05:42:36;95072.22;;;19.92;71.82
6423;BME280;3244;42.708;23.288;2023-05-27T05:45:04;95074.06;;;20.02;71.58
6423;BME280;3244;42.708;23.288;2023-05-27T05:47:31;95054.00;;;20.06;70.57
6423;BME280;3244;42.708;23.288;2023-05-27T05:49:57;95077.19;;;20.19;70.83
6423;BME280;3244;42.708;23.288;2023-05-27T05:52:24;95066.41;;;20.37;70.66
6423;BME280;3244;42.708;23.288;2023-05-27T05:54:51;95068.41;;;20.69;69.53
6423;BME280;3244;42.708;23.288;2023-05-27T05:57:19;95073.38;;;20.83;68.99
6423;BME280;3244;42.708;23.288;2023-05-27T05:59:45;95080.66;;;20.78;68.83
6423;BME280;3244;42.708;23.288;2023-05-27T06:02:12;95076.31;;;20.55;69.56
6423;BME280;3244;42.708;23.288;2023-05-27T06:04:39;95075.03;;;20.36;70.39
6423;BME280;3244;42.708;23.288;2023-05-27T06:07:05;95081.78;;;20.02;71.25
6423;BME280;3244;42.708;23.288;2023-05-27T06:09:32;95082.91;;;19.75;72.47
6423;BME280;3244;42.708;23.288;2023-05-27T06:11:59;95082.78;;;19.63;73.85
6423;BME280;3244;42.708;23.288;2023-05-27T06:14:27;95085.47;;;19.49;75.02
6423;BME280;3244;42.708;23.288;2023-05-27T06:16:53;95076.72;;;19.64;73.55
6423;BME280;3244;42.708;23.288;2023-05-27T06:19:20;95077.84;;;19.60;73.74
6423;BME280;3244;42.708;23.288;2023-05-27T06:21:46;95080.72;;;19.56;74.02
6423;BME280;3244;42.708;23.288;2023-05-27T06:24:13;95076.41;;;19.56;74.53
6423;BME280;3244;42.708;23.288;2023-05-27T06:26:40;95084.03;;;19.70;74.02
6423;BME280;3244;42.708;23.288;2023-05-27T06:29:07;95081.25;;;19.74;74.47
6423;BME280;3244;42.708;23.288;2023-05-27T06:31:35;95084.00;;;19.83;73.59
6423;BME280;3244;42.708;23.288;2023-05-27T06:34:01;95089.34;;;19.93;73.15
6423;BME280;3244;42.708;23.288;2023-05-27T06:36:28;95096.88;;;19.83;73.80
6423;BME280;3244;42.708;23.288;2023-05-27T06:38:55;95096.81;;;19.72;74.89
6423;BME280;3244;42.708;23.288;2023-05-27T06:41:22;95096.88;;;19.83;74.86
6423;BME280;3244;42.708;23.288;2023-05-27T06:43:49;95092.63;;;19.95;74.50
6423;BME280;3244;42.708;23.288;2023-05-27T06:46:15;95095.16;;;20.08;74.37
6423;BME280;3244;42.708;23.288;2023-05-27T06:48:43;95089.63;;;20.37;73.40
6423;BME280;3244;42.708;23.288;2023-05-27T06:51:10;95095.88;;;20.70;71.47
6423;BME280;3244;42.708;23.288;2023-05-27T06:53:37;95096.19;;;20.89;71.10
6423;BME280;3244;42.708;23.288;2023-05-27T06:56:04;95095.53;;;21.10;68.84
6423;BME280;3244;42.708;23.288;2023-05-27T06:58:31;95102.44;;;21.09;69.20
6423;BME280;3244;42.708;23.288;2023-05-27T07:00:57;95101.19;;;21.15;69.40
6423;BME280;3244;42.708;23.288;2023-05-27T07:03:24;95097.75;;;21.83;68.33
6423;BME280;3244;42.708;23.288;2023-05-27T07:05:52;95098.09;;;23.19;63.94
6423;BME280;3244;42.708;23.288;2023-05-27T07:08:19;95095.69;;;24.18;59.66
6423;BME280;3244;42.708;23.288;2023-05-27T07:10:45;95101.53;;;24.70;57.02
6423;BME280;3244;42.708;23.288;2023-05-27T07:13:12;95100.31;;;24.64;57.44
6423;BME280;3244;42.708;23.288;2023-05-27T07:15:41;95099.31;;;24.56;57.30
6423;BME280;3244;42.708;23.288;2023-05-27T07:18:08;95104.53;;;24.65;57.06
6423;BME280;3244;42.708;23.288;2023-05-27T07:20:35;95103.97;;;24.42;56.88
6423;BME280;3244;42.708;23.288;2023-05-27T07:23:03;95106.47;;;24.14;58.22
6423;BME280;3244;42.708;23.288;2023-05-27T07:25:30;95103.31;;;23.70;59.81
6423;BME280;3244;42.708;23.288;2023-05-27T07:27:56;95101.16;;;23.33;61.20
6423;BME280;3244;42.708;23.288;2023-05-27T07:30:23;95109.53;;;22.95;62.72
6423;BME280;3244;42.708;23.288;2023-05-27T07:32:49;95102.56;;;22.64;63.75
6423;BME280;3244;42.708;23.288;2023-05-27T07:35:16;95106.38;;;22.49;64.59
6423;BME280;3244;42.708;23.288;2023-05-27T07:37:43;95100.91;;;22.63;64.28
6423;BME280;3244;42.708;23.288;2023-05-27T07:40:11;95078.06;;;22.57;64.07
6423;BME280;3244;42.708;23.288;2023-05-27T07:42:38;95097.34;;;22.75;64.11
6423;BME280;3244;42.708;23.288;2023-05-27T07:45:05;95101.78;;;22.84;63.75
6423;BME280;3244;42.708;23.288;2023-05-27T07:47:32;95104.34;;;22.95;62.98
6423;BME280;3244;42.708;23.288;2023-05-27T07:49:59;95103.19;;;22.88;63.69
6423;BME280;3244;42.708;23.288;2023-05-27T07:52:26;95107.47;;;22.78;64.90
6423;BME280;3244;42.708;23.288;2023-05-27T07:54:52;95099.19;;;22.84;64.42
6423;BME280;3244;42.708;23.288;2023-05-27T07:57:20;95104.00;;;22.89;63.35
6423;BME280;3244;42.708;23.288;2023-05-27T07:59:47;95099.97;;;22.64;63.80
6423;BME280;3244;42.708;23.288;2023-05-27T08:02:13;95103.31;;;22.44;64.86
6423;BME280;3244;42.708;23.288;2023-05-27T08:04:40;95107.50;;;22.24;65.73
6423;BME280;3244;42.708;23.288;2023-05-27T08:07:09;95113.63;;;22.12;66.46
6423;BME280;3244;42.708;23.288;2023-05-27T08:09:35;95109.38;;;22.11;66.54
6423;BME280;3244;42.708;23.288;2023-05-27T08:12:02;95114.22;;;22.26;65.70
6423;BME280;3244;42.708;23.288;2023-05-27T08:14:32;95118.13;;;22.53;65.43
6423;BME280;3244;42.708;23.288;2023-05-27T08:16:59;95114.19;;;22.69;64.18
6423;BME280;3244;42.708;23.288;2023-05-27T08:19:26;95108.19;;;22.69;63.23
6423;BME280;3244;42.708;23.288;2023-05-27T08:21:53;95107.31;;;22.48;63.07
6423;BME280;3244;42.708;23.288;2023-05-27T08:24:21;95108.38;;;22.02;62.79
6423;BME280;3244;42.708;23.288;2023-05-27T08:26:48;95112.09;;;21.76;64.81
6423;BME280;3244;42.708;23.288;2023-05-27T08:29:15;95112.34;;;21.50;66.12
6423;BME280;3244;42.708;23.288;2023-05-27T08:31:43;95105.75;;;21.46;67.02
6423;BME280;3244;42.708;23.288;2023-05-27T08:34:10;95115.63;;;21.52;67.52
6423;BME280;3244;42.708;23.288;2023-05-27T08:36:37;95117.03;;;21.67;67.24
6423;BME280;3244;42.708;23.288;2023-05-27T08:39:03;95121.50;;;21.88;66.84
6423;BME280;3244;42.708;23.288;2023-05-27T08:41:30;95115.72;;;21.84;66.84
6423;BME280;3244;42.708;23.288;2023-05-27T08:43:57;95119.25;;;21.83;65.84
6423;BME280;3244;42.708;23.288;2023-05-27T08:46:26;95115.63;;;21.63;66.41
6423;BME280;3244;42.708;23.288;2023-05-27T08:48:55;95110.78;;;21.48;67.26
6423;BME280;3244;42.708;23.288;2023-05-27T08:51:22;95116.16;;;21.33;67.66
6423;BME280;3244;42.708;23.288;2023-05-27T08:53:49;95112.75;;;21.22;68.16
6423;BME280;3244;42.708;23.288;2023-05-27T08:56:19;95111.59;;;21.26;68.57
6423;BME280;3244;42.708;23.288;2023-05-27T08:58:47;95104.22;;;21.09;68.17
6423;BME280;3244;42.708;23.288;2023-05-27T09:01:16;95114.31;;;21.00;68.47
6423;BME280;3244;42.708;23.288;2023-05-27T09:03:43;95110.63;;;20.92;69.26
6423;BME280;3244;42.708;23.288;2023-05-27T09:06:11;95106.63;;;20.88;69.27
6423;BME280;3244;42.708;23.288;2023-05-27T09:08:38;95104.75;;;20.79;67.91
6423;BME280;3244;42.708;23.288;2023-05-27T09:11:05;95099.41;;;20.69;68.79
6423;BME280;3244;42.708;23.288;2023-05-27T09:13:33;95106.66;;;20.64;68.72
6423;BME280;3244;42.708;23.288;2023-05-27T09:16:01;95100.53;;;20.54;68.26
6423;BME280;3244;42.708;23.288;2023-05-27T09:18:29;95101.28;;;20.67;68.41
6423;BME280;3244;42.708;23.288;2023-05-27T09:20:56;95109.03;;;20.67;67.28
6423;BME280;3244;42.708;23.288;2023-05-27T09:23:25;95087.63;;;20.54;67.93
6423;BME280;3244;42.708;23.288;2023-05-27T09:25:52;95103.19;;;20.28;67.35
6423;BME280;3244;42.708;23.288;2023-05-27T09:28:22;95096.94;;;20.07;69.36
6423;BME280;3244;42.708;23.288;2023-05-27T09:30:58;95095.53;;;20.03;70.63
6423;BME280;3244;42.708;23.288;2023-05-27T09:33:26;95089.25;;;19.94;70.75
6423;BME280;3244;42.708;23.288;2023-05-27T09:35:54;95098.13;;;19.90;70.79
6423;BME280;3244;42.708;23.288;2023-05-27T09:38:20;95093.28;;;19.86;70.61
6423;BME280;3244;42.708;23.288;2023-05-27T09:40:48;95075.53;;;19.81;70.53
6423;BME280;3244;42.708;23.288;2023-05-27T09:43:15;95086.59;;;20.07;70.28
6423;BME280;3244;42.708;23.288;2023-05-27T09:45:43;95092.41;;;20.34;70.03
6423;BME280;3244;42.708;23.288;2023-05-27T09:48:12;95083.75;;;20.59;68.19
6423;BME280;3244;42.708;23.288;2023-05-27T09:50:40;95080.88;;;20.75;67.54
6423;BME280;3244;42.708;23.288;2023-05-27T09:53:07;95081.06;;;20.96;66.52
6423;BME280;3244;42.708;23.288;2023-05-27T09:55:34;95079.31;;;21.08;64.80
6423;BME280;3244;42.708;23.288;2023-05-27T09:58:03;95080.69;;;21.24;64.66
6423;BME280;3244;42.708;23.288;2023-05-27T10:00:30;95077.28;;;21.46;62.98
6423;BME280;3244;42.708;23.288;2023-05-27T10:03:00;95082.00;;;21.75;62.45
6423;BME280;3244;42.708;23.288;2023-05-27T10:05:28;95089.75;;;22.19;61.06
6423;BME280;3244;42.708;23.288;2023-05-27T10:07:55;95081.84;;;22.53;59.52
6423;BME280;3244;42.708;23.288;2023-05-27T10:10:22;95075.19;;;22.82;58.71
6423;BME280;3244;42.708;23.288;2023-05-27T10:12:50;95063.88;;;23.04;57.57
6423;BME280;3244;42.708;23.288;2023-05-27T10:15:24;95078.41;;;23.37;56.41
6423;BME280;3244;42.708;23.288;2023-05-27T10:17:54;95081.69;;;23.39;56.60
6423;BME280;3244;42.708;23.288;2023-05-27T10:20:27;95068.63;;;23.20;56.22
6423;BME280;3244;42.708;23.288;2023-05-27T10:22:55;95061.97;;;22.85;56.39
6423;BME280;3244;42.708;23.288;2023-05-27T10:25:23;95073.75;;;22.89;57.60
6423;BME280;3244;42.708;23.288;2023-05-27T10:28:01;95071.38;;;23.28;57.38
6423;BME280;3244;42.708;23.288;2023-05-27T10:30:29;95066.31;;;23.47;55.76
6423;BME280;3244;42.708;23.288;2023-05-27T10:32:56;95063.41;;;23.40;54.99
6423;BME280;3244;42.708;23.288;2023-05-27T10:35:25;95062.38;;;23.53;54.97
6423;BME280;3244;42.708;23.288;2023-05-27T10:37:52;95066.50;;;23.55;54.42
6423;BME280;3244;42.708;23.288;2023-05-27T10:40:24;95056.25;;;23.33;54.34
6423;BME280;3244;42.708;23.288;2023-05-27T10:42:58;95054.47;;;23.54;54.13
6423;BME280;3244;42.708;23.288;2023-05-27T10:45:33;95052.94;;;23.72;53.17
6423;BME280;3244;42.708;23.288;2023-05-27T10:48:00;95045.22;;;23.61;53.08
6423;BME280;3244;42.708;23.288;2023-05-27T10:50:30;95048.97;;;23.17;53.52
6423;BME280;3244;42.708;23.288;2023-05-27T10:52:59;95051.19;;;22.37;54.28
6423;BME280;3244;42.708;23.288;2023-05-27T10:55:26;95044.56;;;22.23;55.87
6423;BME280;3244;42.708;23.288;2023-05-27T10:57:53;95045.16;;;22.04;57.23
6423;BME280;3244;42.708;23.288;2023-05-27T11:00:21;95046.59;;;21.86;58.04
6423;BME280;3244;42.708;23.288;2023-05-27T11:02:51;95049.16;;;21.86;58.80
6423;BME280;3244;42.708;23.288;2023-05-27T11:05:19;95046.25;;;22.02;57.86
6423;BME280;3244;42.708;23.288;2023-05-27T11:07:46;95042.22;;;21.98;57.52
6423;BME280;3244;42.708;23.288;2023-05-27T11:10:13;95050.47;;;22.03;57.87
6423;BME280;3244;42.708;23.288;2023-05-27T11:12:43;95046.81;;;21.83;58.53
6423;BME280;3244;42.708;23.288;2023-05-27T11:15:10;95033.31;;;21.68;59.17
6423;BME280;3244;42.708;23.288;2023-05-27T11:17:37;95030.47;;;21.83;59.48
6423;BME280;3244;42.708;23.288;2023-05-27T11:20:06;95027.81;;;22.27;58.16
6423;BME280;3244;42.708;23.288;2023-05-27T11:22:33;95023.16;;;22.74;57.01
6423;BME280;3244;42.708;23.288;2023-05-27T11:25:03;95019.25;;;23.00;56.32
6423;BME280;3244;42.708;23.288;2023-05-27T11:27:35;95022.00;;;22.67;53.89
6423;BME280;3244;42.708;23.288;2023-05-27T11:30:06;95024.09;;;22.20;56.96
6423;BME280;3244;42.708;23.288;2023-05-27T11:32:35;95015.47;;;21.77;57.66
6423;BME280;3244;42.708;23.288;2023-05-27T11:35:02;95008.66;;;21.42;58.30
6423;BME280;3244;42.708;23.288;2023-05-27T11:37:33;95010.06;;;21.24;58.97
6423;BME280;3244;42.708;23.288;2023-05-27T11:40:00;95003.34;;;21.32;59.42
6423;BME280;3244;42.708;23.288;2023-05-27T11:42:28;94996.56;;;21.43;60.13
6423;BME280;3244;42.708;23.288;2023-05-27T11:44:55;94997.38;;;21.43;60.94
6423;BME280;3244;42.708;23.288;2023-05-27T11:47:22;94993.63;;;21.47;59.16
6423;BME280;3244;42.708;23.288;2023-05-27T11:49:49;94998.75;;;21.58;59.50
6423;BME280;3244;42.708;23.288;2023-05-27T11:52:17;94972.94;;;21.47;58.70
6423;BME280;3244;42.708;23.288;2023-05-27T11:54:49;94998.72;;;21.81;58.31
6423;BME280;3244;42.708;23.288;2023-05-27T11:57:16;94988.88;;;21.63;57.21
6423;BME280;3244;42.708;23.288;2023-05-27T11:59:42;94992.28;;;21.75;56.70
6423;BME280;3244;42.708;23.288;2023-05-27T12:02:09;94993.31;;;21.84;56.50
6423;BME280;3244;42.708;23.288;2023-05-27T12:04:35;94987.59;;;21.69;56.20
6423;BME280;3244;42.708;23.288;2023-05-27T12:07:02;94989.88;;;21.51;57.41
6423;BME280;3244;42.708;23.288;2023-05-27T12:09:30;94982.81;;;21.42;57.98
6423;BME280;3244;42.708;23.288;2023-05-27T12:11:58;94980.19;;;21.64;58.94
6423;BME280;3244;42.708;23.288;2023-05-27T12:14:26;94979.63;;;22.15;57.73
6423;BME280;3244;42.708;23.288;2023-05-27T12:16:52;94973.19;;;22.30;56.98
6423;BME280;3244;42.708;23.288;2023-05-27T12:19:19;94969.41;;;22.34;54.94
6423;BME280;3244;42.708;23.288;2023-05-27T12:21:45;94958.22;;;22.34;54.83
6423;BME280;3244;42.708;23.288;2023-05-27T12:24:12;94961.72;;;22.65;54.25
6423;BME280;3244;42.708;23.288;2023-05-27T12:26:39;94953.72;;;22.68;53.74
6423;BME280;3244;42.708;23.288;2023-05-27T12:29:08;94956.16;;;22.69;53.70
6423;BME280;3244;42.708;23.288;2023-05-27T12:31:35;94942.78;;;22.44;53.24
6423;BME280;3244;42.708;23.288;2023-05-27T12:34:02;94950.16;;;22.69;53.54
6423;BME280;3244;42.708;23.288;2023-05-27T12:36:28;94940.44;;;22.61;52.67
6423;BME280;3244;42.708;23.288;2023-05-27T12:38:55;94931.66;;;22.53;53.20
6423;BME280;3244;42.708;23.288;2023-05-27T12:41:22;94936.47;;;22.36;54.18
6423;BME280;3244;42.708;23.288;2023-05-27T12:43:48;94926.84;;;22.27;53.98
6423;BME280;3244;42.708;23.288;2023-05-27T12:46:16;94924.78;;;22.21;55.29
6423;BME280;3244;42.708;23.288;2023-05-27T12:48:43;94911.59;;;22.24;55.61
6423;BME280;3244;42.708;23.288;2023-05-27T12:51:10;94919.34;;;22.45;56.20
6423;BME280;3244;42.708;23.288;2023-05-27T12:53:37;94921.81;;;22.47;55.07
6423;BME280;3244;42.708;23.288;2023-05-27T12:56:04;94921.28;;;22.32;55.34
6423;BME280;3244;42.708;23.288;2023-05-27T12:58:31;94916.88;;;22.23;55.42
6423;BME280;3244;42.708;23.288;2023-05-27T13:00:58;94910.59;;;22.04;57.60
6423;BME280;3244;42.708;23.288;2023-05-27T13:03:26;94917.00;;;21.89;57.35
6423;BME280;3244;42.708;23.288;2023-05-27T13:05:53;94906.88;;;21.86;57.43
6423;BME280;3244;42.708;23.288;2023-05-27T13:08:19;94910.78;;;21.81;57.47
6423;BME280;3244;42.708;23.288;2023-05-27T13:10:46;94897.59;;;21.84;57.52